Baharii — WDJ2453 — position and weather

sailwx.info

Track history (hours):
 
Tides and Currents Weather Stations Pressure Air Temp Water Temp Dewpoint Dewpoint Depression Visibility Wind Speed Wind Dir Waves Ship Positions

Baharii

Owner: Goedtner, Werner, Sarasota, FL. More information available from US FCC via Universal Licensing System and Coast Guard Vessel Documentation Center.

Last reported at 2018-Jan-07 17:58 UTC. Time now 2018-Jan-22 18:36 UTC.
Position N 14°16' W 060°57'.
Warning: this ship's position is 15 days out of date.

Type: Sailing vessel. MMSI: 369104000.

Date/timePositionNaut miles runAvg speedWind from/ knotsBaromVisibWave heightAir tempDewpointWater temp
2018-Jan-07 17:58N 14°16' W 060°57'3 5.8
2018-Jan-07 17:30N 14°18' W 060°56'3 5.3
2018-Jan-07 17:00N 14°21' W 060°56'3 5.8
2018-Jan-07 16:29N 14°24' W 060°55'3 5.8
2018-Jan-07 16:00N 14°26' W 060°54'2 3.9
2018-Jan-07 15:30N 14°28' W 060°53'0 0.9
2018-Jan-07 14:59N 14°28' W 060°53'0 0.0
2018-Jan-07 14:26N 14°28' W 060°53'0 0.0
2018-Jan-07 13:59N 14°28' W 060°53'0 0.0
2018-Jan-07 13:29N 14°28' W 060°53'0 0.0
2018-Jan-07 12:59N 14°28' W 060°53'0 0.0
2018-Jan-07 12:29N 14°28' W 060°53'0 0.0
2018-Jan-07 11:56N 14°28' W 060°53'0 0.0
2018-Jan-07 11:29N 14°28' W 060°53'0 0.0
2018-Jan-07 02:03N 14°28' W 060°53'0 0.2
2018-Jan-07 02:00N 14°28' W 060°53'0 0.0
2018-Jan-07 01:30N 14°28' W 060°53'0 0.0
2018-Jan-07 00:27N 14°28' W 060°53'0 0.0
2018-Jan-07 00:00N 14°28' W 060°53'0 0.0
2018-Jan-06 23:30N 14°28' W 060°53'0 0.0
2018-Jan-06 23:00N 14°28' W 060°53'0 0.0
2018-Jan-06 22:30N 14°28' W 060°53'0 0.0
2018-Jan-06 22:00N 14°28' W 060°53'0 0.0
2018-Jan-06 21:30N 14°28' W 060°53'0 0.0
2018-Jan-06 21:00N 14°28' W 060°53'0 0.0
2018-Jan-06 20:30N 14°28' W 060°53'0 0.0
2018-Jan-06 20:00N 14°28' W 060°53'0 0.0
2018-Jan-06 19:30N 14°28' W 060°53'0 0.0
2018-Jan-06 19:00N 14°28' W 060°53'0 0.0
2018-Jan-06 18:30N 14°28' W 060°53'0 0.0
2018-Jan-06 18:00N 14°28' W 060°53'0 0.0
2018-Jan-06 17:30N 14°28' W 060°53'0 0.0
2018-Jan-06 17:00N 14°28' W 060°53'0 0.0
2018-Jan-06 16:30N 14°28' W 060°53'0 0.0
2018-Jan-06 16:00N 14°28' W 060°53'0 0.0
2018-Jan-06 15:30N 14°28' W 060°53'0 0.0
2018-Jan-06 15:00N 14°28' W 060°53'0 0.0
2018-Jan-06 14:30N 14°28' W 060°53'0 0.0
2018-Jan-06 14:00N 14°28' W 060°53'0 0.0
2018-Jan-06 13:30N 14°28' W 060°53'0 0.0
2018-Jan-06 13:00N 14°28' W 060°53'0 0.0
2018-Jan-06 12:30N 14°28' W 060°53'0 0.0
2018-Jan-06 12:00N 14°28' W 060°53'0 0.0
2018-Jan-06 02:59N 14°28' W 060°53'0 0.0
2018-Jan-06 02:29N 14°28' W 060°53'0 0.0
2018-Jan-06 01:59N 14°28' W 060°53'0 0.0
2018-Jan-06 01:29N 14°28' W 060°53'0 0.0
2018-Jan-06 00:59N 14°28' W 060°53'0 0.0
2018-Jan-06 00:29N 14°28' W 060°53'0 0.0
2018-Jan-05 23:59N 14°28' W 060°53'0 0.0
2018-Jan-05 23:29N 14°28' W 060°53'0 0.0
2018-Jan-05 22:59N 14°28' W 060°53'0 0.0
2018-Jan-05 22:29N 14°28' W 060°53'2 1.5
2018-Jan-05 21:23N 14°27' W 060°54'2 4.2
2018-Jan-05 21:00N 14°27' W 060°55'2 4.3
2018-Jan-05 20:30N 14°27' W 060°58'2 4.3
2018-Jan-05 20:00N 14°27' W 060°60'2 4.0
2018-Jan-05 19:30N 14°27' W 061°02'2 0.1
2018-Jan-04 18:28N 14°27' W 061°04'2 2.8
2018-Jan-04 17:55N 14°27' W 061°02'1 3.0
2018-Jan-04 17:30N 14°26' W 061°01'1 2.9
2018-Jan-04 17:00N 14°26' W 060°60'1 2.8
2018-Jan-04 16:30N 14°26' W 060°58'1 2.5
2018-Jan-04 16:00N 14°26' W 060°57'1 2.0
2018-Jan-04 15:29N 14°26' W 060°56'1 1.3
2018-Jan-04 14:58N 14°26' W 060°55'1 2.2
2018-Jan-04 14:26N 14°26' W 060°54'1 1.6
2018-Jan-04 13:57N 14°26' W 060°53'0 0.0
2018-Jan-04 13:30N 14°26' W 060°53'0 0.0
2018-Jan-04 12:54N 14°26' W 060°53'0 0.0
2018-Jan-04 11:21N 14°26' W 060°53'0 0.0
2018-Jan-04 10:57N 14°26' W 060°53'0 0.0
2018-Jan-04 10:30N 14°26' W 060°53'0 0.0
2018-Jan-04 09:54N 14°26' W 060°53'0 0.0
2018-Jan-04 09:24N 14°26' W 060°53'0 0.0
2018-Jan-04 08:40N 14°26' W 060°53'0 0.0
2018-Jan-04 08:25N 14°26' W 060°53'0 0.0
2018-Jan-04 07:39N 14°26' W 060°53'0 0.0
2018-Jan-04 07:18N 14°26' W 060°53'0 0.0
2018-Jan-04 07:00N 14°26' W 060°53'0 0.0
2018-Jan-04 06:27N 14°26' W 060°53'0 0.0
2018-Jan-04 06:00N 14°26' W 060°53'0 0.0
2018-Jan-04 05:30N 14°26' W 060°53'0 0.0
2018-Jan-04 05:00N 14°26' W 060°53'0 0.0
2018-Jan-04 04:30N 14°26' W 060°53'0 0.0
2018-Jan-04 04:00N 14°26' W 060°53'0 0.0
2018-Jan-04 03:30N 14°26' W 060°53'0 0.0
2018-Jan-04 03:00N 14°26' W 060°53'0 0.0
2018-Jan-04 02:30N 14°26' W 060°53'0 0.0
2018-Jan-04 02:00N 14°26' W 060°53'0 0.0
2018-Jan-04 01:30N 14°26' W 060°53'0 0.0
2018-Jan-04 01:00N 14°26' W 060°53'0 0.0
2018-Jan-04 00:30N 14°26' W 060°53'0 0.0
2018-Jan-04 00:00N 14°26' W 060°53'0 0.0
2018-Jan-03 23:30N 14°26' W 060°53'0 0.0
2018-Jan-03 23:00N 14°26' W 060°53'0 0.0
2018-Jan-03 22:30N 14°26' W 060°53'0 0.0
2018-Jan-03 20:06N 14°26' W 060°53'0 0.1
2018-Jan-03 20:00N 14°26' W 060°53'0 0.0
2018-Jan-03 19:30N 14°26' W 060°53'0 0.0
2018-Jan-03 19:00N 14°26' W 060°53'0 0.0
2018-Jan-03 18:30N 14°26' W 060°53'0 0.0
2018-Jan-03 18:00N 14°26' W 060°53'0 0.3
2018-Jan-03 17:30N 14°26' W 060°53'2 3.3
2018-Jan-03 17:00N 14°24' W 060°54'2 4.9
2018-Jan-03 16:30N 14°22' W 060°53'  
Track history (hours):
 
Tides and Currents Weather Stations Pressure Air Temp Water Temp Dewpoint Dewpoint Depression Visibility Wind Speed Wind Dir Waves Ship Positions

Baharii

Owner: Goedtner, Werner, Sarasota, FL. More information available from US FCC via Universal Licensing System and Coast Guard Vessel Documentation Center.

Last reported at 2018-Jan-07 17:58 UTC. Time now 2018-Jan-22 18:36 UTC.
Position N 14°16' W 060°57'.
Warning: this ship's position is 15 days out of date.

Type: Sailing vessel. MMSI: 369104000.

Date/timePositionNaut miles runAvg speedWind from/ knotsBaromVisibWave heightAir tempDewpointWater temp
2018-Jan-07 17:58N 14°16' W 060°57'3 5.8
2018-Jan-07 17:30N 14°18' W 060°56'3 5.3
2018-Jan-07 17:00N 14°21' W 060°56'3 5.8
2018-Jan-07 16:29N 14°24' W 060°55'3 5.8
2018-Jan-07 16:00N 14°26' W 060°54'2 3.9
2018-Jan-07 15:30N 14°28' W 060°53'0 0.9
2018-Jan-07 14:59N 14°28' W 060°53'0 0.0
2018-Jan-07 14:26N 14°28' W 060°53'0 0.0
2018-Jan-07 13:59N 14°28' W 060°53'0 0.0
2018-Jan-07 13:29N 14°28' W 060°53'0 0.0
2018-Jan-07 12:59N 14°28' W 060°53'0 0.0
2018-Jan-07 12:29N 14°28' W 060°53'0 0.0
2018-Jan-07 11:56N 14°28' W 060°53'0 0.0
2018-Jan-07 11:29N 14°28' W 060°53'0 0.0
2018-Jan-07 02:03N 14°28' W 060°53'0 0.2
2018-Jan-07 02:00N 14°28' W 060°53'0 0.0
2018-Jan-07 01:30N 14°28' W 060°53'0 0.0
2018-Jan-07 00:27N 14°28' W 060°53'0 0.0
2018-Jan-07 00:00N 14°28' W 060°53'0 0.0
2018-Jan-06 23:30N 14°28' W 060°53'0 0.0
2018-Jan-06 23:00N 14°28' W 060°53'0 0.0
2018-Jan-06 22:30N 14°28' W 060°53'0 0.0
2018-Jan-06 22:00N 14°28' W 060°53'0 0.0
2018-Jan-06 21:30N 14°28' W 060°53'0 0.0
2018-Jan-06 21:00N 14°28' W 060°53'0 0.0
2018-Jan-06 20:30N 14°28' W 060°53'0 0.0
2018-Jan-06 20:00N 14°28' W 060°53'0 0.0
2018-Jan-06 19:30N 14°28' W 060°53'0 0.0
2018-Jan-06 19:00N 14°28' W 060°53'0 0.0
2018-Jan-06 18:30N 14°28' W 060°53'0 0.0
2018-Jan-06 18:00N 14°28' W 060°53'0 0.0
2018-Jan-06 17:30N 14°28' W 060°53'0 0.0
2018-Jan-06 17:00N 14°28' W 060°53'0 0.0
2018-Jan-06 16:30N 14°28' W 060°53'0 0.0
2018-Jan-06 16:00N 14°28' W 060°53'0 0.0
2018-Jan-06 15:30N 14°28' W 060°53'0 0.0
2018-Jan-06 15:00N 14°28' W 060°53'0 0.0
2018-Jan-06 14:30N 14°28' W 060°53'0 0.0
2018-Jan-06 14:00N 14°28' W 060°53'0 0.0
2018-Jan-06 13:30N 14°28' W 060°53'0 0.0
2018-Jan-06 13:00N 14°28' W 060°53'0 0.0
2018-Jan-06 12:30N 14°28' W 060°53'0 0.0
2018-Jan-06 12:00N 14°28' W 060°53'0 0.0
2018-Jan-06 02:59N 14°28' W 060°53'0 0.0
2018-Jan-06 02:29N 14°28' W 060°53'0 0.0
2018-Jan-06 01:59N 14°28' W 060°53'0 0.0
2018-Jan-06 01:29N 14°28' W 060°53'0 0.0
2018-Jan-06 00:59N 14°28' W 060°53'0 0.0
2018-Jan-06 00:29N 14°28' W 060°53'0 0.0
2018-Jan-05 23:59N 14°28' W 060°53'0 0.0
2018-Jan-05 23:29N 14°28' W 060°53'0 0.0
2018-Jan-05 22:59N 14°28' W 060°53'0 0.0
2018-Jan-05 22:29N 14°28' W 060°53'2 1.5
2018-Jan-05 21:23N 14°27' W 060°54'2 4.2
2018-Jan-05 21:00N 14°27' W 060°55'2 4.3
2018-Jan-05 20:30N 14°27' W 060°58'2 4.3
2018-Jan-05 20:00N 14°27' W 060°60'2 4.0
2018-Jan-05 19:30N 14°27' W 061°02'2 0.1
2018-Jan-04 18:28N 14°27' W 061°04'2 2.8
2018-Jan-04 17:55N 14°27' W 061°02'1 3.0
2018-Jan-04 17:30N 14°26' W 061°01'1 2.9
2018-Jan-04 17:00N 14°26' W 060°60'1 2.8
2018-Jan-04 16:30N 14°26' W 060°58'1 2.5
2018-Jan-04 16:00N 14°26' W 060°57'1 2.0
2018-Jan-04 15:29N 14°26' W 060°56'1 1.3
2018-Jan-04 14:58N 14°26' W 060°55'1 2.2
2018-Jan-04 14:26N 14°26' W 060°54'1 1.6
2018-Jan-04 13:57N 14°26' W 060°53'0 0.0
2018-Jan-04 13:30N 14°26' W 060°53'0 0.0
2018-Jan-04 12:54N 14°26' W 060°53'0 0.0
2018-Jan-04 11:21N 14°26' W 060°53'0 0.0
2018-Jan-04 10:57N 14°26' W 060°53'0 0.0
2018-Jan-04 10:30N 14°26' W 060°53'0 0.0
2018-Jan-04 09:54N 14°26' W 060°53'0 0.0
2018-Jan-04 09:24N 14°26' W 060°53'0 0.0
2018-Jan-04 08:40N 14°26' W 060°53'0 0.0
2018-Jan-04 08:25N 14°26' W 060°53'0 0.0
2018-Jan-04 07:39N 14°26' W 060°53'0 0.0
2018-Jan-04 07:18N 14°26' W 060°53'0 0.0
2018-Jan-04 07:00N 14°26' W 060°53'0 0.0
2018-Jan-04 06:27N 14°26' W 060°53'0 0.0
2018-Jan-04 06:00N 14°26' W 060°53'0 0.0
2018-Jan-04 05:30N 14°26' W 060°53'0 0.0
2018-Jan-04 05:00N 14°26' W 060°53'0 0.0
2018-Jan-04 04:30N 14°26' W 060°53'0 0.0
2018-Jan-04 04:00N 14°26' W 060°53'0 0.0
2018-Jan-04 03:30N 14°26' W 060°53'0 0.0
2018-Jan-04 03:00N 14°26' W 060°53'0 0.0
2018-Jan-04 02:30N 14°26' W 060°53'0 0.0
2018-Jan-04 02:00N 14°26' W 060°53'0 0.0
2018-Jan-04 01:30N 14°26' W 060°53'0 0.0
2018-Jan-04 01:00N 14°26' W 060°53'0 0.0
2018-Jan-04 00:30N 14°26' W 060°53'0 0.0
2018-Jan-04 00:00N 14°26' W 060°53'0 0.0
2018-Jan-03 23:30N 14°26' W 060°53'0 0.0
2018-Jan-03 23:00N 14°26' W 060°53'0 0.0
2018-Jan-03 22:30N 14°26' W 060°53'0 0.0
2018-Jan-03 20:06N 14°26' W 060°53'0 0.1
2018-Jan-03 20:00N 14°26' W 060°53'0 0.0
2018-Jan-03 19:30N 14°26' W 060°53'0 0.0
2018-Jan-03 19:00N 14°26' W 060°53'0 0.0
2018-Jan-03 18:30N 14°26' W 060°53'0 0.0
2018-Jan-03 18:00N 14°26' W 060°53'0 0.3
2018-Jan-03 17:30N 14°26' W 060°53'2 3.3
2018-Jan-03 17:00N 14°24' W 060°54'2 4.9
2018-Jan-03 16:30N 14°22' W 060°53'  

Dump ship's entire track history